Time;durP1;ratioP1;P1;durP2;ratioP2;P2;SDS_P1;SDS_P2;PMS_P1;PMS_P2;Temp;Humidity;BMP_temperature;BMP_pressure;BME280_temperature;BME280_humidity;BME280_pressure;Samples;Min_cycle;Max_cycle;Signal;HPM_P1;HPM_P2
2023/03/20 00:11:49;;;;;;;31.90;20.60;;;9.40;99.90;;;;;;2610047;54;20430;-74
2023/03/20 00:17:36;;;;;;;32.90;22.00;;;9.40;99.90;;;;;;2609557;54;20905;-75
2023/03/20 00:23:24;;;;;;;30.43;20.33;;;9.30;99.90;;;;;;2611289;54;20142;-74
2023/03/20 00:29:29;;;;;;;28.97;19.67;;;9.30;99.90;;;;;;2611047;54;20379;-74
2023/03/20 00:35:29;;;;;;;28.83;20.50;;;9.30;99.90;;;;;;2609760;39;20672;-74
2023/03/20 00:41:30;;;;;;;33.60;20.57;;;9.20;99.90;;;;;;2609456;54;20391;-75
2023/03/20 00:44:52;;;;;;;37.97;22.93;;;9.20;99.90;;;;;;2610084;54;20439;-75
2023/03/20 00:50:39;;;;;;;37.40;21.90;;;9.20;99.90;;;;;;2610242;54;20387;-76
2023/03/20 00:56:31;;;;;;;25.93;18.67;;;9.20;99.90;;;;;;2608658;54;20184;-74
2023/03/20 01:02:20;;;;;;;25.33;16.60;;;9.20;99.90;;;;;;2610749;54;20893;-75
2023/03/20 01:11:31;;;;;;;23.97;15.47;;;9.00;99.90;;;;;;2611308;54;20507;-74
2023/03/20 01:17:24;;;;;;;26.83;17.50;;;9.10;99.90;;;;;;2610344;54;20406;-74
2023/03/20 01:23:12;;;;;;;24.57;16.47;;;9.10;99.90;;;;;;2611717;54;20367;-74
2023/03/20 01:28:59;;;;;;;23.33;15.50;;;9.00;99.90;;;;;;2610967;54;20146;-74
2023/03/20 01:34:47;;;;;;;27.43;16.60;;;9.00;99.90;;;;;;2611815;54;20584;-75
2023/03/20 01:40:47;;;;;;;22.40;15.43;;;9.00;99.90;;;;;;2611231;54;20134;-75
2023/03/20 01:46:37;;;;;;;24.43;15.70;;;9.00;99.90;;;;;;2610905;54;21166;-74
2023/03/20 01:52:25;;;;;;;28.77;15.70;;;8.80;99.90;;;;;;2611766;54;20358;-74
2023/03/20 01:55:28;;;;;;;21.13;15.07;;;8.90;99.90;;;;;;2611086;54;20383;-75
2023/03/20 01:57:57;;;;;;;23.97;15.33;;;8.80;99.90;;;;;;2611451;54;20274;-74
2023/03/20 02:03:48;;;;;;;18.73;12.60;;;8.70;99.90;;;;;;2609932;54;20362;-74
2023/03/20 02:06:44;;;;;;;19.50;12.20;;;8.70;99.90;;;;;;2610394;54;20400;-74
2023/03/20 02:09:10;;;;;;;20.93;12.40;;;8.70;99.90;;;;;;2610879;54;20412;-75
2023/03/20 02:14:59;;;;;;;21.17;13.17;;;8.60;99.90;;;;;;2613026;54;20472;-74
2023/03/20 02:34:21;;;;;;;15.10;10.13;;;8.70;99.90;;;;;;2608756;54;20411;-75
2023/03/20 02:53:31;;;;;;;10.60;8.70;;;8.60;99.90;;;;;;2608738;54;20444;-74
2023/03/20 03:12:11;;;;;;;7.57;6.30;;;8.60;99.90;;;;;;2607616;54;20586;-74
2023/03/20 03:15:04;;;;;;;8.83;6.50;;;8.60;99.90;;;;;;2608302;46;20445;-74
2023/03/20 03:33:52;;;;;;;6.47;5.60;;;8.40;99.90;;;;;;2609561;54;20926;-74
2023/03/20 03:39:48;;;;;;;7.50;6.80;;;8.30;99.90;;;;;;2611293;54;20370;-75
2023/03/20 03:51:53;;;;;;;9.03;8.13;;;8.10;99.90;;;;;;2610013;54;20807;-73
2023/03/20 04:02:14;;;;;;;10.60;6.70;;;8.20;99.90;;;;;;2608473;54;20945;-74
2023/03/20 04:08:04;;;;;;;13.97;7.40;;;8.30;99.90;;;;;;2609275;54;20388;-74
2023/03/20 04:10:30;;;;;;;10.23;7.60;;;8.30;99.90;;;;;;2612286;54;20552;-75
2023/03/20 04:12:56;;;;;;;11.50;8.20;;;8.20;99.90;;;;;;2612770;54;20378;-74
2023/03/20 04:18:44;;;;;;;12.47;8.87;;;8.30;99.90;;;;;;2612270;54;20122;-74
2023/03/20 04:24:31;;;;;;;18.80;10.80;;;8.40;99.90;;;;;;2609507;54;20378;-75
2023/03/20 04:30:18;;;;;;;16.53;11.53;;;8.40;99.90;;;;;;2609437;54;20130;-75
2023/03/20 04:36:06;;;;;;;14.60;10.10;;;8.30;99.90;;;;;;2610974;54;20467;-75
2023/03/20 04:41:54;;;;;;;21.03;11.60;;;8.20;99.90;;;;;;2611455;54;20410;-75
2023/03/20 04:47:41;;;;;;;16.40;12.90;;;7.90;99.90;;;;;;2609858;54;20126;-75
2023/03/20 04:53:29;;;;;;;18.00;12.50;;;7.70;99.90;;;;;;2610657;39;20647;-74
2023/03/20 04:59:18;;;;;;;23.97;14.03;;;7.60;99.90;;;;;;2610472;54;20169;-75
2023/03/20 05:05:05;;;;;;;25.40;13.73;;;7.60;99.90;;;;;;2609832;54;21039;-74
2023/03/20 05:15:05;;;;;;;23.33;14.20;;;7.60;99.90;;;;;;2610308;54;20403;-74
2023/03/20 05:20:53;;;;;;;21.70;15.23;;;7.60;99.90;;;;;;2611317;54;20382;-75
2023/03/20 05:26:40;;;;;;;22.77;14.07;;;7.50;99.90;;;;;;2611541;54;20131;-75
2023/03/20 05:32:28;;;;;;;24.83;15.57;;;7.50;99.90;;;;;;2611185;39;20668;-74
2023/03/20 05:38:16;;;;;;;24.03;15.57;;;7.50;99.90;;;;;;2610876;54;20126;-75
2023/03/20 05:44:04;;;;;;;24.80;14.50;;;7.50;99.90;;;;;;2611156;54;20142;-74
2023/03/20 05:49:52;;;;;;;25.27;14.90;;;7.40;99.90;;;;;;2611781;54;20126;-75
2023/03/20 05:55:40;;;;;;;23.37;15.33;;;7.30;99.90;;;;;;2610538;54;20161;-75
2023/03/20 06:01:28;;;;;;;24.60;14.47;;;7.40;99.90;;;;;;2610747;54;20399;-74
2023/03/20 06:07:15;;;;;;;25.07;14.40;;;7.40;99.90;;;;;;2609891;54;20596;-74
2023/03/20 06:10:33;;;;;;;20.20;11.73;;;7.40;99.90;;;;;;2610677;54;20415;-74
2023/03/20 06:13:00;;;;;;;24.07;14.37;;;7.50;99.90;;;;;;2613964;54;20222;-75
2023/03/20 06:18:48;;;;;;;21.87;14.07;;;7.50;99.90;;;;;;2612807;54;20406;-76
2023/03/20 06:24:35;;;;;;;17.70;11.40;;;7.60;99.90;;;;;;2610187;54;20386;-74
2023/03/20 06:30:23;;;;;;;16.87;11.90;;;7.60;99.90;;;;;;2614233;54;20126;-74
2023/03/20 06:36:11;;;;;;;15.17;10.27;;;7.70;99.90;;;;;;2613324;54;20242;-81
2023/03/20 06:41:59;;;;;;;14.00;9.70;;;7.60;99.90;;;;;;2611992;39;20865;-74
2023/03/20 06:47:47;;;;;;;13.13;9.20;;;7.60;99.90;;;;;;2610028;54;20229;-75
2023/03/20 06:53:35;;;;;;;17.60;12.97;;;7.70;99.90;;;;;;2609608;54;20363;-74
2023/03/20 06:59:23;;;;;;;18.00;9.77;;;7.80;99.90;;;;;;2611987;54;20407;-75
2023/03/20 07:05:11;;;;;;;16.10;10.27;;;7.90;99.90;;;;;;2610515;54;20147;-75
2023/03/20 07:15:04;;;;;;;13.07;8.27;;;8.10;99.90;;;;;;2612519;54;20386;-75
2023/03/20 07:20:56;;;;;;;11.50;9.03;;;8.20;99.90;;;;;;2610813;54;20901;-75
2023/03/20 07:26:44;;;;;;;11.60;9.40;;;8.10;99.90;;;;;;2609718;54;20407;-74
2023/03/20 07:32:32;;;;;;;11.63;9.27;;;8.40;99.90;;;;;;2610221;39;20789;-74
2023/03/20 07:38:21;;;;;;;13.53;8.70;;;8.40;99.90;;;;;;2611713;54;20138;-73
2023/03/20 07:44:09;;;;;;;10.10;8.53;;;8.60;99.90;;;;;;2610282;54;20977;-74
2023/03/20 07:49:57;;;;;;;10.70;9.33;;;8.80;99.90;;;;;;2609276;54;20379;-75
2023/03/20 07:55:45;;;;;;;8.70;7.87;;;8.70;99.90;;;;;;2611180;54;20138;-74
2023/03/20 08:01:33;;;;;;;14.60;10.40;;;8.80;99.90;;;;;;2611993;54;20486;-74
2023/03/20 08:07:20;;;;;;;17.37;12.23;;;8.90;99.90;;;;;;2613227;54;20187;-74
2023/03/20 08:10:34;;;;;;;19.43;12.00;;;9.00;99.90;;;;;;2613205;54;20427;-75
2023/03/20 08:12:59;;;;;;;14.30;10.97;;;9.10;99.90;;;;;;2612742;46;20181;-74
2023/03/20 08:18:49;;;;;;;31.23;12.73;;;9.70;99.90;;;;;;2613477;54;20158;-75
2023/03/20 08:24:37;;;;;;;16.03;13.30;;;9.60;99.90;;;;;;2613188;39;20738;-75
2023/03/20 08:30:25;;;;;;;17.97;14.20;;;10.00;99.90;;;;;;2613457;54;20375;-74
2023/03/20 08:36:14;;;;;;;22.33;14.47;;;9.80;99.90;;;;;;2613201;54;20158;-74
2023/03/20 08:42:02;;;;;;;20.60;13.67;;;9.90;99.90;;;;;;2612360;46;20414;-71
2023/03/20 08:47:50;;;;;;;14.10;12.60;;;10.10;99.90;;;;;;2612865;54;20157;-71
2023/03/20 08:53:38;;;;;;;16.17;13.93;;;10.20;99.90;;;;;;2613081;54;20399;-71
2023/03/20 08:59:25;;;;;;;17.50;12.53;;;10.10;99.90;;;;;;2612079;54;20143;-71
2023/03/20 09:05:13;;;;;;;14.53;12.17;;;10.00;99.90;;;;;;2612634;54;20669;-71
2023/03/20 09:15:06;;;;;;;16.83;11.17;;;9.90;97.30;;;;;;2611602;54;20383;-71
2023/03/20 09:20:55;;;;;;;12.23;10.70;;;9.60;99.40;;;;;;2612580;39;20743;-71
2023/03/20 09:26:43;;;;;;;13.33;12.10;;;9.80;99.80;;;;;;2612598;54;21157;-70
2023/03/20 09:32:30;;;;;;;11.93;10.57;;;9.70;95.80;;;;;;2612719;54;20142;-71
2023/03/20 09:38:18;;;;;;;19.47;11.00;;;9.50;94.30;;;;;;2610309;54;20238;-71
2023/03/20 09:57:01;;;;;;;11.40;10.40;;;9.80;92.20;;;;;;2609146;54;20920;-71
2023/03/20 10:02:51;;;;;;;11.07;10.00;;;9.70;92.30;;;;;;2608487;54;20367;-70
2023/03/20 10:08:41;;;;;;;10.67;9.77;;;9.80;82.00;;;;;;2610368;54;20383;-71
2023/03/20 10:11:45;;;;;;;9.43;8.50;;;9.70;78.80;;;;;;2611888;31;21011;-71
2023/03/20 10:21:06;;;;;;;14.90;8.70;;;9.80;73.90;;;;;;2612688;54;20391;-71
2023/03/20 10:26:58;;;;;;;8.73;8.23;;;9.90;64.40;;;;;;2612032;54;20363;-72
2023/03/20 10:32:49;;;;;;;9.33;8.63;;;9.70;51.50;;;;;;2610527;46;20443;-71
2023/03/20 10:45:30;;;;;;;10.53;9.63;;;10.40;52.40;;;;;;2610851;46;20406;-71
2023/03/20 10:51:21;;;;;;;13.40;9.40;;;10.50;49.70;;;;;;2612005;54;20406;-71
2023/03/20 11:03:54;;;;;;;10.77;9.80;;;10.60;45.60;;;;;;2612268;54;21049;-70
2023/03/20 11:09:42;;;;;;;10.90;10.30;;;10.60;45.30;;;;;;2612271;54;20980;-71
2023/03/20 11:15:33;;;;;;;11.50;10.60;;;10.80;45.40;;;;;;2611811;46;20427;-71
2023/03/20 11:21:26;;;;;;;11.10;10.20;;;10.20;44.90;;;;;;2611787;54;21348;-71
2023/03/20 11:27:19;;;;;;;11.60;10.37;;;10.70;45.10;;;;;;2609987;54;21142;-70
2023/03/20 11:33:07;;;;;;;11.70;10.70;;;10.50;45.50;;;;;;2610229;39;21303;-70
2023/03/20 11:36:16;;;;;;;11.90;10.73;;;10.90;44.70;;;;;;2610369;54;20464;-72
2023/03/20 11:38:44;;;;;;;11.50;10.60;;;10.60;46.00;;;;;;2612162;54;20416;-71
2023/03/20 11:44:35;;;;;;;21.67;10.70;;;10.60;46.20;;;;;;2613063;54;20454;-70
2023/03/20 11:50:33;;;;;;;12.17;11.07;;;10.60;48.70;;;;;;2613168;39;20793;-71
2023/03/20 11:56:31;;;;;;;10.93;9.90;;;10.20;50.20;;;;;;2611415;54;20455;-71
2023/03/20 12:02:21;;;;;;;9.87;9.17;;;10.50;51.30;;;;;;2612685;54;20499;-70
2023/03/20 12:11:54;;;;;;;10.57;9.77;;;10.40;47.00;;;;;;2611191;54;20387;-71
2023/03/20 12:27:44;;;;;;;10.17;9.33;;;9.80;53.20;;;;;;2613315;54;20363;-70
2023/03/20 12:33:40;;;;;;;10.70;9.87;;;10.10;56.70;;;;;;2612618;54;20456;-69
2023/03/20 12:39:40;;;;;;;10.17;9.20;;;10.00;58.70;;;;;;2612696;54;20366;-70
2023/03/20 13:37:27;;;;;;;8.80;8.10;;;9.90;85.30;;;;;;2613641;54;20495;-71
2023/03/20 13:43:29;;;;;;;9.77;8.80;;;9.60;86.60;;;;;;2614162;39;20651;-71
2023/03/20 14:02:18;;;;;;;9.43;8.80;;;9.60;99.90;;;;;;2614114;54;20391;-71
2023/03/20 14:08:27;;;;;;;10.43;9.37;;;9.70;97.80;;;;;;2613171;54;20374;-72
2023/03/20 14:20:49;;;;;;;10.43;9.63;;;9.80;96.80;;;;;;2612063;54;20359;-71
2023/03/20 14:26:40;;;;;;;9.37;8.57;;;9.70;99.90;;;;;;2612509;39;20862;-70
2023/03/20 14:46:00;;;;;;;8.53;7.83;;;10.30;99.90;;;;;;2611474;54;20432;-71
2023/03/20 14:51:52;;;;;;;9.27;8.47;;;10.10;98.50;;;;;;2611412;54;20455;-71
2023/03/20 14:57:41;;;;;;;12.33;9.67;;;10.40;98.40;;;;;;2612018;54;20366;-71
2023/03/20 15:03:29;;;;;;;9.30;8.57;;;10.40;98.10;;;;;;2612174;54;20381;-71
2023/03/20 15:09:20;;;;;;;8.77;8.17;;;10.40;95.00;;;;;;2612316;54;20557;-71
2023/03/20 15:11:58;;;;;;;10.17;9.30;;;10.50;96.00;;;;;;2612778;46;20474;-72
2023/03/20 15:14:29;;;;;;;11.03;8.90;;;10.60;93.40;;;;;;2612507;54;20394;-72
2023/03/20 15:20:21;;;;;;;10.17;9.30;;;10.30;90.00;;;;;;2611185;54;20374;-71
2023/03/20 15:26:10;;;;;;;8.57;8.10;;;10.30;92.50;;;;;;2610951;54;20463;-72
2023/03/20 15:32:00;;;;;;;9.33;8.50;;;10.20;92.40;;;;;;2613777;54;20522;-71
2023/03/20 15:37:50;;;;;;;8.47;7.73;;;10.10;99.90;;;;;;2613073;54;20407;-70
2023/03/20 15:43:37;;;;;;;12.93;8.17;;;10.00;99.90;;;;;;2610764;54;20439;-71
2023/03/20 15:49:27;;;;;;;8.10;7.30;;;9.80;99.90;;;;;;2612016;54;20219;-71
2023/03/20 15:55:18;;;;;;;16.20;7.83;;;9.90;99.90;;;;;;2612803;54;20382;-71
2023/03/20 16:01:07;;;;;;;15.90;9.00;;;10.00;99.90;;;;;;2613050;54;20358;-72
2023/03/20 16:06:58;;;;;;;8.90;8.03;;;9.90;99.90;;;;;;2613340;31;20822;-72
2023/03/20 16:16:28;;;;;;;12.23;8.90;;;9.90;99.90;;;;;;2612027;54;20507;-71
2023/03/20 16:22:19;;;;;;;11.00;7.67;;;10.00;99.90;;;;;;2613072;54;20922;-71
2023/03/20 16:28:11;;;;;;;12.80;8.00;;;9.90;99.90;;;;;;2614735;54;20362;-71
2023/03/20 16:34:02;;;;;;;6.60;6.10;;;9.70;99.90;;;;;;2613286;54;20363;-71
2023/03/20 16:46:27;;;;;;;9.37;7.10;;;9.40;99.90;;;;;;2610395;54;20391;-72
2023/03/20 16:52:16;;;;;;;10.57;6.63;;;9.40;99.90;;;;;;2610565;54;20362;-70
2023/03/20 16:58:06;;;;;;;7.07;6.47;;;9.40;99.90;;;;;;2609892;54;20917;-72
2023/03/20 17:03:56;;;;;;;7.47;6.07;;;9.30;99.90;;;;;;2608523;31;20809;-71
2023/03/20 17:10:05;;;;;;;8.93;6.30;;;9.20;99.90;;;;;;2611028;54;20378;-71
2023/03/20 17:19:17;;;;;;;13.60;5.90;;;9.00;99.90;;;;;;2610323;54;20861;-71
2023/03/20 17:25:07;;;;;;;10.10;6.90;;;8.90;99.90;;;;;;2610279;54;20471;-71
2023/03/20 17:30:54;;;;;;;14.80;5.80;;;8.90;99.90;;;;;;2610559;54;20387;-71
2023/03/20 17:36:42;;;;;;;7.50;6.57;;;8.90;99.90;;;;;;2610976;54;20153;-71
2023/03/20 17:42:31;;;;;;;9.50;6.37;;;8.80;99.90;;;;;;2609831;54;20154;-71
2023/03/20 17:48:20;;;;;;;13.43;6.00;;;8.80;99.90;;;;;;2612301;54;20392;-72
2023/03/20 17:54:07;;;;;;;10.57;6.53;;;8.90;99.90;;;;;;2614432;39;20803;-71
2023/03/20 17:59:55;;;;;;;13.13;6.60;;;8.90;99.90;;;;;;2614386;54;20135;-75
2023/03/20 18:12:27;;;;;;;16.73;6.13;;;9.10;99.90;;;;;;2613327;31;20823;-75
2023/03/20 18:18:15;;;;;;;13.17;5.97;;;9.20;99.90;;;;;;2612931;54;20130;-75
2023/03/20 18:24:02;;;;;;;7.20;5.63;;;9.20;99.90;;;;;;2611328;54;20395;-75
2023/03/20 18:29:49;;;;;;;16.50;6.90;;;9.30;99.90;;;;;;2612486;54;20151;-74
2023/03/20 18:35:37;;;;;;;6.10;5.40;;;9.30;99.90;;;;;;2612363;54;20230;-74
2023/03/20 18:41:24;;;;;;;16.03;6.60;;;9.30;99.90;;;;;;2610911;54;20158;-73
2023/03/20 18:47:11;;;;;;;6.93;5.87;;;9.40;99.90;;;;;;2613682;54;20414;-73
2023/03/20 18:52:59;;;;;;;7.43;5.70;;;9.60;99.90;;;;;;2610554;54;20844;-74
2023/03/20 18:58:48;;;;;;;8.80;6.37;;;9.50;99.90;;;;;;2610168;54;20158;-73
2023/03/20 19:04:36;;;;;;;10.70;6.37;;;9.50;99.90;;;;;;2611789;54;20394;-74
2023/03/20 19:10:27;;;;;;;8.10;6.47;;;9.60;99.90;;;;;;2610890;54;20170;-74
2023/03/20 19:19:38;;;;;;;11.50;7.13;;;9.70;99.90;;;;;;2607201;54;20415;-75
2023/03/20 19:25:26;;;;;;;13.03;6.87;;;9.70;99.90;;;;;;2610023;54;20744;-74
2023/03/20 19:31:13;;;;;;;11.07;8.57;;;9.70;99.90;;;;;;2610249;54;20130;-74
2023/03/20 19:37:01;;;;;;;9.70;5.93;;;9.70;99.90;;;;;;2607425;54;20127;-74
2023/03/20 19:42:49;;;;;;;13.40;5.87;;;9.70;99.90;;;;;;2606726;54;20150;-75
2023/03/20 19:48:38;;;;;;;8.27;6.07;;;9.60;99.90;;;;;;2607323;39;20555;-74
2023/03/20 19:51:43;;;;;;;8.67;5.37;;;9.70;99.90;;;;;;2604452;54;20412;-75
2023/03/20 19:54:09;;;;;;;8.07;5.20;;;9.60;99.90;;;;;;2606389;54;20415;-75
2023/03/20 19:59:57;;;;;;;11.33;5.80;;;9.50;99.90;;;;;;2605263;54;20133;-74
2023/03/20 20:05:45;;;;;;;9.90;8.27;;;9.60;99.90;;;;;;2607354;54;20395;-75
2023/03/20 20:11:33;;;;;;;15.77;6.57;;;9.60;99.90;;;;;;2607734;54;20431;-74
2023/03/20 20:14:57;;;;;;;9.70;7.40;;;9.60;99.90;;;;;;2607306;54;20751;-75
2023/03/20 20:17:23;;;;;;;10.30;8.33;;;9.50;99.90;;;;;;2606177;54;20177;-75
2023/03/20 20:23:13;;;;;;;10.17;8.47;;;9.60;99.90;;;;;;2607011;54;20134;-74
2023/03/20 20:29:01;;;;;;;6.33;5.73;;;9.60;99.90;;;;;;2610243;39;20840;-74
2023/03/20 20:34:49;;;;;;;10.80;6.70;;;9.60;99.90;;;;;;2606125;54;20371;-73
2023/03/20 20:40:37;;;;;;;10.13;7.20;;;9.50;99.90;;;;;;2608470;54;20366;-75
2023/03/20 20:46:25;;;;;;;7.17;6.47;;;9.40;99.90;;;;;;2607340;54;20403;-74
2023/03/20 20:52:14;;;;;;;10.17;7.57;;;9.40;99.90;;;;;;2606401;54;20146;-75
2023/03/20 20:58:04;;;;;;;11.97;6.60;;;9.50;99.90;;;;;;2606715;54;20968;-74
2023/03/20 21:03:52;;;;;;;8.40;6.10;;;9.60;99.90;;;;;;2606981;54;20392;-74
2023/03/20 21:09:39;;;;;;;10.77;7.50;;;9.60;99.90;;;;;;2607582;54;20271;-74
2023/03/20 21:19:27;;;;;;;11.13;6.23;;;9.60;99.90;;;;;;2607532;54;20468;-76
2023/03/20 21:25:15;;;;;;;8.47;7.07;;;9.70;99.90;;;;;;2609006;39;20806;-74
2023/03/20 21:31:03;;;;;;;11.30;7.30;;;9.70;99.90;;;;;;2608233;54;20399;-75
2023/03/20 21:36:51;;;;;;;11.53;7.47;;;9.90;99.90;;;;;;2609902;54;20134;-75
2023/03/20 21:42:39;;;;;;;11.47;7.27;;;9.90;99.90;;;;;;2610253;54;20399;-73
2023/03/20 21:48:27;;;;;;;11.60;5.80;;;10.00;99.90;;;;;;2610028;54;20182;-75
2023/03/20 21:54:14;;;;;;;11.17;7.83;;;10.10;99.90;;;;;;2609692;54;20367;-73
2023/03/20 22:00:04;;;;;;;16.00;7.43;;;10.10;99.90;;;;;;2609915;54;20153;-75
2023/03/20 22:05:52;;;;;;;10.03;7.90;;;10.00;99.90;;;;;;2610033;54;20403;-75
2023/03/20 22:11:39;;;;;;;13.13;7.80;;;10.00;99.90;;;;;;2609513;54;20138;-75
2023/03/20 22:14:57;;;;;;;8.43;7.27;;;9.90;99.90;;;;;;2609350;54;20950;-74
2023/03/20 22:17:23;;;;;;;15.20;8.63;;;9.90;99.90;;;;;;2610167;54;20161;-74
2023/03/20 22:23:12;;;;;;;11.30;7.70;;;9.80;99.90;;;;;;2610471;54;20371;-75
2023/03/20 22:28:59;;;;;;;12.03;8.67;;;9.80;99.90;;;;;;2614671;39;20777;-74
2023/03/20 22:34:47;;;;;;;10.87;9.10;;;9.80;99.90;;;;;;2614404;54;20131;-74
2023/03/20 22:40:37;;;;;;;12.40;8.00;;;9.90;99.90;;;;;;2611757;54;20127;-76
2023/03/20 22:46:25;;;;;;;12.83;8.67;;;9.90;99.90;;;;;;2610810;54;20358;-75
2023/03/20 22:52:12;;;;;;;17.40;10.20;;;10.00;99.90;;;;;;2610016;54;20130;-75
2023/03/20 22:58:00;;;;;;;12.40;9.13;;;10.00;99.90;;;;;;2609828;54;21646;-75
2023/03/20 23:03:48;;;;;;;18.00;9.30;;;10.10;99.90;;;;;;2610048;54;20142;-75
2023/03/20 23:09:36;;;;;;;14.90;9.23;;;10.10;99.90;;;;;;2610216;54;20133;-74
2023/03/20 23:19:29;;;;;;;27.20;8.57;;;10.10;99.90;;;;;;2610306;54;20970;-75
2023/03/20 23:25:17;;;;;;;19.70;11.07;;;10.10;99.90;;;;;;2609822;54;20383;-75
2023/03/20 23:31:09;;;;;;;20.90;10.47;;;10.00;99.90;;;;;;2610568;54;20364;-76
2023/03/20 23:36:56;;;;;;;11.57;8.20;;;9.90;99.90;;;;;;2609165;54;20499;-75
2023/03/20 23:42:44;;;;;;;16.47;10.73;;;9.90;99.90;;;;;;2610035;54;20125;-75
2023/03/20 23:48:33;;;;;;;24.70;11.90;;;9.90;99.90;;;;;;2609890;54;20134;-77
2023/03/20 23:54:21;;;;;;;14.23;10.07;;;9.90;99.90;;;;;;2610250;54;20345;-75
